Terminal Aerodrome Forecast
Issued by NWS Mt. Holly, NJ

Home | Current Version | Previous Version | Text Only | Print | Product List | Glossary On
Versions: 1 2 3 4 5 6 7 8 9 10 11 12 13 14 15 16 17 18 19 20 21 22 23 24 25 26 27 28 29
000
FTAK31 PANC 020158 AAA
TAFABE
TAF AMD
PABE 020158Z 0202/0224 04007KT P6SM -SHRA VCTS BKN035CB OVC050
      TEMPO 0202/0206 VRB08G20KT
     FM020900 07010KT P6SM -SHRA BKN040=

USA.gov is the U.S. government's official web portal to all federal, state and local government web resources and services.